sensor_id;sensor_type;location;lat;lon;timestamp;pressure;altitude;pressure_sealevel;temperature;humidity
57644;BME280;43474;46.510;6.686;2023-03-11T00:01:36;95625.00;;;4.17;100.00
57644;BME280;43474;46.510;6.686;2023-03-11T00:04:04;95609.97;;;4.06;100.00
57644;BME280;43474;46.510;6.686;2023-03-11T00:06:30;95622.44;;;4.10;100.00
57644;BME280;43474;46.510;6.686;2023-03-11T00:08:55;95611.81;;;4.05;100.00
57644;BME280;43474;46.510;6.686;2023-03-11T00:11:21;95632.56;;;4.07;100.00
57644;BME280;43474;46.510;6.686;2023-03-11T00:13:46;95610.84;;;4.00;100.00
57644;BME280;43474;46.510;6.686;2023-03-11T00:16:12;95616.91;;;4.00;100.00
57644;BME280;43474;46.510;6.686;2023-03-11T00:18:37;95632.41;;;4.02;100.00
57644;BME280;43474;46.510;6.686;2023-03-11T00:21:03;95612.28;;;3.96;100.00
57644;BME280;43474;46.510;6.686;2023-03-11T00:23:29;95620.09;;;4.02;100.00
57644;BME280;43474;46.510;6.686;2023-03-11T00:25:55;95586.50;;;3.93;100.00
57644;BME280;43474;46.510;6.686;2023-03-11T00:28:21;95592.13;;;3.96;100.00
57644;BME280;43474;46.510;6.686;2023-03-11T00:30:49;95597.75;;;4.00;100.00
57644;BME280;43474;46.510;6.686;2023-03-11T00:33:15;95599.94;;;4.03;100.00
57644;BME280;43474;46.510;6.686;2023-03-11T00:35:42;95604.97;;;4.04;100.00
57644;BME280;43474;46.510;6.686;2023-03-11T00:38:12;95614.28;;;4.00;100.00
57644;BME280;43474;46.510;6.686;2023-03-11T00:40:38;95614.50;;;3.99;100.00
57644;BME280;43474;46.510;6.686;2023-03-11T00:43:03;95616.31;;;3.98;100.00
57644;BME280;43474;46.510;6.686;2023-03-11T00:45:29;95622.94;;;4.01;100.00
57644;BME280;43474;46.510;6.686;2023-03-11T00:47:55;95635.41;;;4.05;100.00
57644;BME280;43474;46.510;6.686;2023-03-11T00:50:29;95627.59;;;3.99;100.00
57644;BME280;43474;46.510;6.686;2023-03-11T00:52:56;95610.31;;;3.91;100.00
57644;BME280;43474;46.510;6.686;2023-03-11T00:55:25;95615.72;;;3.96;100.00
57644;BME280;43474;46.510;6.686;2023-03-11T00:57:55;95620.53;;;3.99;100.00
57644;BME280;43474;46.510;6.686;2023-03-11T01:00:23;95600.28;;;3.88;100.00
57644;BME280;43474;46.510;6.686;2023-03-11T01:02:50;95595.03;;;3.88;100.00
57644;BME280;43474;46.510;6.686;2023-03-11T01:05:19;95615.06;;;4.01;100.00
57644;BME280;43474;46.510;6.686;2023-03-11T01:07:45;95596.56;;;3.96;100.00
57644;BME280;43474;46.510;6.686;2023-03-11T01:10:11;95611.28;;;3.97;100.00
57644;BME280;43474;46.510;6.686;2023-03-11T01:12:37;95612.69;;;3.99;100.00
57644;BME280;43474;46.510;6.686;2023-03-11T01:15:04;95613.47;;;4.00;100.00
57644;BME280;43474;46.510;6.686;2023-03-11T01:17:29;95611.06;;;3.98;100.00
57644;BME280;43474;46.510;6.686;2023-03-11T01:19:55;95604.19;;;3.97;100.00
57644;BME280;43474;46.510;6.686;2023-03-11T01:22:21;95593.94;;;3.96;100.00
57644;BME280;43474;46.510;6.686;2023-03-11T01:24:47;95612.69;;;3.99;100.00
57644;BME280;43474;46.510;6.686;2023-03-11T01:27:12;95616.25;;;4.05;100.00
57644;BME280;43474;46.510;6.686;2023-03-11T01:29:38;95591.16;;;3.91;100.00
57644;BME280;43474;46.510;6.686;2023-03-11T01:32:04;95603.78;;;4.00;100.00
57644;BME280;43474;46.510;6.686;2023-03-11T01:34:29;95605.84;;;3.98;100.00
57644;BME280;43474;46.510;6.686;2023-03-11T01:36:55;95566.19;;;3.88;100.00
57644;BME280;43474;46.510;6.686;2023-03-11T01:39:20;95584.88;;;3.98;100.00
57644;BME280;43474;46.510;6.686;2023-03-11T01:41:46;95569.81;;;3.87;100.00
57644;BME280;43474;46.510;6.686;2023-03-11T01:44:12;95554.84;;;3.94;100.00
57644;BME280;43474;46.510;6.686;2023-03-11T01:49:19;95545.16;;;3.95;100.00
57644;BME280;43474;46.510;6.686;2023-03-11T01:51:48;95538.91;;;3.96;100.00
57644;BME280;43474;46.510;6.686;2023-03-11T01:54:23;95542.16;;;3.91;100.00
57644;BME280;43474;46.510;6.686;2023-03-11T01:56:50;95527.88;;;3.87;100.00
57644;BME280;43474;46.510;6.686;2023-03-11T01:59:21;95501.91;;;3.85;100.00
57644;BME280;43474;46.510;6.686;2023-03-11T02:01:51;95500.88;;;3.86;100.00
57644;BME280;43474;46.510;6.686;2023-03-11T02:04:20;95505.09;;;3.87;100.00
57644;BME280;43474;46.510;6.686;2023-03-11T02:06:45;95510.72;;;3.91;100.00
57644;BME280;43474;46.510;6.686;2023-03-11T02:09:12;95519.22;;;3.86;100.00
57644;BME280;43474;46.510;6.686;2023-03-11T02:11:37;95532.97;;;3.82;100.00
57644;BME280;43474;46.510;6.686;2023-03-11T02:14:05;95528.59;;;3.76;100.00
57644;BME280;43474;46.510;6.686;2023-03-11T02:16:33;95525.19;;;3.75;100.00
57644;BME280;43474;46.510;6.686;2023-03-11T02:19:05;95540.25;;;3.80;100.00
57644;BME280;43474;46.510;6.686;2023-03-11T02:21:33;95524.22;;;3.70;100.00
57644;BME280;43474;46.510;6.686;2023-03-11T02:24:20;95536.84;;;3.79;100.00
57644;BME280;43474;46.510;6.686;2023-03-11T02:29:27;95502.56;;;3.81;100.00
57644;BME280;43474;46.510;6.686;2023-03-11T02:31:56;95492.50;;;3.78;100.00
57644;BME280;43474;46.510;6.686;2023-03-11T02:34:25;95502.31;;;3.82;100.00
57644;BME280;43474;46.510;6.686;2023-03-11T02:36:52;95485.31;;;3.73;100.00
57644;BME280;43474;46.510;6.686;2023-03-11T02:39:34;95500.53;;;3.83;100.00
57644;BME280;43474;46.510;6.686;2023-03-11T02:42:04;95496.66;;;3.85;100.00
57644;BME280;43474;46.510;6.686;2023-03-11T02:44:32;95510.00;;;3.84;100.00
57644;BME280;43474;46.510;6.686;2023-03-11T02:46:58;95502.16;;;3.77;100.00
57644;BME280;43474;46.510;6.686;2023-03-11T02:49:25;95518.91;;;3.76;100.00
57644;BME280;43474;46.510;6.686;2023-03-11T02:51:50;95539.00;;;3.82;100.00
57644;BME280;43474;46.510;6.686;2023-03-11T02:54:16;95532.41;;;3.80;100.00
57644;BME280;43474;46.510;6.686;2023-03-11T02:56:42;95509.22;;;3.77;100.00
57644;BME280;43474;46.510;6.686;2023-03-11T02:59:08;95501.69;;;3.87;100.00
57644;BME280;43474;46.510;6.686;2023-03-11T03:01:33;95488.00;;;3.85;100.00
57644;BME280;43474;46.510;6.686;2023-03-11T03:04:00;95468.22;;;3.89;100.00
57644;BME280;43474;46.510;6.686;2023-03-11T03:06:25;95454.97;;;3.84;100.00
57644;BME280;43474;46.510;6.686;2023-03-11T03:08:53;95474.81;;;3.92;100.00
57644;BME280;43474;46.510;6.686;2023-03-11T03:11:19;95468.41;;;3.87;100.00
57644;BME280;43474;46.510;6.686;2023-03-11T03:13:45;95469.81;;;3.90;100.00
57644;BME280;43474;46.510;6.686;2023-03-11T03:16:11;95453.44;;;3.95;100.00
57644;BME280;43474;46.510;6.686;2023-03-11T03:18:37;95459.91;;;3.92;100.00
57644;BME280;43474;46.510;6.686;2023-03-11T03:21:03;95455.09;;;3.89;100.00
57644;BME280;43474;46.510;6.686;2023-03-11T03:23:29;95461.06;;;3.96;100.00
57644;BME280;43474;46.510;6.686;2023-03-11T03:26:00;95450.81;;;3.95;100.00
57644;BME280;43474;46.510;6.686;2023-03-11T03:28:26;95442.00;;;3.89;100.00
57644;BME280;43474;46.510;6.686;2023-03-11T03:30:52;95445.94;;;3.98;100.00
57644;BME280;43474;46.510;6.686;2023-03-11T03:33:18;95416.50;;;3.96;100.00
57644;BME280;43474;46.510;6.686;2023-03-11T03:35:44;95413.47;;;3.99;100.00
57644;BME280;43474;46.510;6.686;2023-03-11T03:38:10;95404.66;;;3.94;100.00
57644;BME280;43474;46.510;6.686;2023-03-11T03:40:36;95400.13;;;4.01;100.00
57644;BME280;43474;46.510;6.686;2023-03-11T03:43:03;95403.16;;;3.98;100.00
57644;BME280;43474;46.510;6.686;2023-03-11T03:45:28;95426.19;;;3.96;100.00
57644;BME280;43474;46.510;6.686;2023-03-11T03:47:54;95409.44;;;3.97;100.00
57644;BME280;43474;46.510;6.686;2023-03-11T03:50:20;95396.94;;;3.99;100.00
57644;BME280;43474;46.510;6.686;2023-03-11T03:52:46;95404.78;;;3.99;100.00
57644;BME280;43474;46.510;6.686;2023-03-11T03:55:11;95406.03;;;3.96;100.00
57644;BME280;43474;46.510;6.686;2023-03-11T03:57:37;95398.38;;;3.95;100.00
57644;BME280;43474;46.510;6.686;2023-03-11T04:00:03;95396.84;;;4.05;100.00
57644;BME280;43474;46.510;6.686;2023-03-11T04:02:30;95405.72;;;4.04;100.00
57644;BME280;43474;46.510;6.686;2023-03-11T04:04:56;95397.13;;;3.97;100.00
57644;BME280;43474;46.510;6.686;2023-03-11T04:07:21;95412.34;;;4.07;100.00
57644;BME280;43474;46.510;6.686;2023-03-11T04:09:47;95391.31;;;3.95;100.00
57644;BME280;43474;46.510;6.686;2023-03-11T04:12:14;95385.56;;;4.05;100.00
57644;BME280;43474;46.510;6.686;2023-03-11T04:14:40;95362.09;;;4.10;100.00
57644;BME280;43474;46.510;6.686;2023-03-11T04:17:07;95376.38;;;4.14;100.00
57644;BME280;43474;46.510;6.686;2023-03-11T04:19:32;95409.94;;;4.05;100.00
57644;BME280;43474;46.510;6.686;2023-03-11T04:21:58;95377.84;;;3.92;100.00
57644;BME280;43474;46.510;6.686;2023-03-11T04:24:24;95414.31;;;4.11;100.00
57644;BME280;43474;46.510;6.686;2023-03-11T04:26:49;95410.75;;;4.06;100.00
57644;BME280;43474;46.510;6.686;2023-03-11T04:29:15;95400.63;;;4.09;100.00
57644;BME280;43474;46.510;6.686;2023-03-11T04:31:40;95406.75;;;4.03;100.00
57644;BME280;43474;46.510;6.686;2023-03-11T04:34:06;95405.78;;;3.98;100.00
57644;BME280;43474;46.510;6.686;2023-03-11T04:36:32;95403.69;;;4.06;100.00
57644;BME280;43474;46.510;6.686;2023-03-11T04:38:57;95404.41;;;4.13;100.00
57644;BME280;43474;46.510;6.686;2023-03-11T04:41:23;95378.53;;;4.17;100.00
57644;BME280;43474;46.510;6.686;2023-03-11T04:43:48;95388.81;;;4.19;100.00
57644;BME280;43474;46.510;6.686;2023-03-11T04:46:14;95420.72;;;4.15;100.00
57644;BME280;43474;46.510;6.686;2023-03-11T04:48:40;95404.47;;;4.07;100.00
57644;BME280;43474;46.510;6.686;2023-03-11T04:51:06;95412.34;;;4.07;100.00
57644;BME280;43474;46.510;6.686;2023-03-11T04:53:31;95398.09;;;4.03;100.00
57644;BME280;43474;46.510;6.686;2023-03-11T04:55:57;95391.38;;;4.07;100.00
57644;BME280;43474;46.510;6.686;2023-03-11T04:58:23;95424.38;;;4.14;100.00
57644;BME280;43474;46.510;6.686;2023-03-11T05:00:50;95411.53;;;4.25;100.00
57644;BME280;43474;46.510;6.686;2023-03-11T05:03:16;95400.91;;;4.20;100.00
57644;BME280;43474;46.510;6.686;2023-03-11T05:05:41;95421.50;;;4.16;100.00
57644;BME280;43474;46.510;6.686;2023-03-11T05:08:07;95415.69;;;4.14;100.00
57644;BME280;43474;46.510;6.686;2023-03-11T05:10:33;95387.00;;;4.01;100.00
57644;BME280;43474;46.510;6.686;2023-03-11T05:12:58;95395.75;;;4.13;100.00
57644;BME280;43474;46.510;6.686;2023-03-11T05:15:24;95401.66;;;4.08;100.00
57644;BME280;43474;46.510;6.686;2023-03-11T05:17:49;95402.66;;;4.07;100.00
57644;BME280;43474;46.510;6.686;2023-03-11T05:20:15;95416.78;;;4.25;100.00
57644;BME280;43474;46.510;6.686;2023-03-11T05:22:41;95409.00;;;4.18;100.00
57644;BME280;43474;46.510;6.686;2023-03-11T05:25:07;95412.06;;;4.15;100.00
57644;BME280;43474;46.510;6.686;2023-03-11T05:27:32;95387.88;;;4.13;100.00
57644;BME280;43474;46.510;6.686;2023-03-11T05:29:58;95407.50;;;4.22;100.00
57644;BME280;43474;46.510;6.686;2023-03-11T05:32:23;95407.31;;;4.24;100.00
57644;BME280;43474;46.510;6.686;2023-03-11T05:34:49;95409.94;;;4.24;100.00
57644;BME280;43474;46.510;6.686;2023-03-11T05:37:16;95417.47;;;4.32;100.00
57644;BME280;43474;46.510;6.686;2023-03-11T05:39:42;95426.00;;;4.27;100.00
57644;BME280;43474;46.510;6.686;2023-03-11T05:42:07;95420.84;;;4.21;100.00
57644;BME280;43474;46.510;6.686;2023-03-11T05:44:33;95419.97;;;4.27;100.00
57644;BME280;43474;46.510;6.686;2023-03-11T05:46:59;95416.78;;;4.25;100.00
57644;BME280;43474;46.510;6.686;2023-03-11T05:49:25;95416.91;;;4.30;100.00
57644;BME280;43474;46.510;6.686;2023-03-11T05:51:51;95415.09;;;4.30;100.00
57644;BME280;43474;46.510;6.686;2023-03-11T05:54:18;95422.00;;;4.25;100.00
57644;BME280;43474;46.510;6.686;2023-03-11T05:56:45;95417.13;;;4.28;100.00
57644;BME280;43474;46.510;6.686;2023-03-11T05:59:12;95425.34;;;4.32;100.00
57644;BME280;43474;46.510;6.686;2023-03-11T06:01:39;95411.81;;;4.17;100.00
57644;BME280;43474;46.510;6.686;2023-03-11T06:04:05;95422.44;;;4.22;100.00
57644;BME280;43474;46.510;6.686;2023-03-11T06:06:30;95423.19;;;4.29;100.00
57644;BME280;43474;46.510;6.686;2023-03-11T06:08:56;95430.19;;;4.17;100.00
57644;BME280;43474;46.510;6.686;2023-03-11T06:11:22;95446.22;;;4.08;100.00
57644;BME280;43474;46.510;6.686;2023-03-11T06:13:54;95454.78;;;4.15;100.00
57644;BME280;43474;46.510;6.686;2023-03-11T06:16:21;95454.88;;;4.09;100.00
57644;BME280;43474;46.510;6.686;2023-03-11T06:18:46;95447.06;;;4.21;100.00
57644;BME280;43474;46.510;6.686;2023-03-11T06:21:18;95457.94;;;4.24;100.00
57644;BME280;43474;46.510;6.686;2023-03-11T06:23:44;95448.03;;;4.08;100.00
57644;BME280;43474;46.510;6.686;2023-03-11T06:26:13;95437.00;;;4.18;100.00
57644;BME280;43474;46.510;6.686;2023-03-11T06:28:39;95447.59;;;4.29;100.00
57644;BME280;43474;46.510;6.686;2023-03-11T06:31:11;95434.56;;;4.23;100.00
57644;BME280;43474;46.510;6.686;2023-03-11T06:33:37;95441.06;;;4.32;100.00
57644;BME280;43474;46.510;6.686;2023-03-11T06:36:03;95450.25;;;4.41;100.00
57644;BME280;43474;46.510;6.686;2023-03-11T06:38:30;95439.72;;;4.29;100.00
57644;BME280;43474;46.510;6.686;2023-03-11T06:41:03;95444.59;;;4.26;100.00
57644;BME280;43474;46.510;6.686;2023-03-11T06:43:30;95448.25;;;4.25;100.00
57644;BME280;43474;46.510;6.686;2023-03-11T06:45:57;95454.66;;;4.29;100.00
57644;BME280;43474;46.510;6.686;2023-03-11T06:48:23;95459.94;;;4.40;100.00
57644;BME280;43474;46.510;6.686;2023-03-11T06:50:58;95451.19;;;4.47;100.00
57644;BME280;43474;46.510;6.686;2023-03-11T06:53:26;95451.31;;;4.52;100.00
57644;BME280;43474;46.510;6.686;2023-03-11T06:58:27;95442.66;;;4.51;100.00
57644;BME280;43474;46.510;6.686;2023-03-11T07:00:53;95444.72;;;4.49;100.00
57644;BME280;43474;46.510;6.686;2023-03-11T07:03:18;95448.56;;;4.47;100.00
57644;BME280;43474;46.510;6.686;2023-03-11T07:05:44;95439.19;;;4.39;100.00
57644;BME280;43474;46.510;6.686;2023-03-11T07:08:10;95460.38;;;4.37;100.00
57644;BME280;43474;46.510;6.686;2023-03-11T07:10:35;95471.81;;;4.43;100.00
57644;BME280;43474;46.510;6.686;2023-03-11T07:13:01;95459.28;;;4.45;100.00
57644;BME280;43474;46.510;6.686;2023-03-11T07:15:27;95452.06;;;4.40;100.00
57644;BME280;43474;46.510;6.686;2023-03-11T07:17:52;95451.19;;;4.47;100.00
57644;BME280;43474;46.510;6.686;2023-03-11T07:20:18;95439.88;;;4.46;100.00
57644;BME280;43474;46.510;6.686;2023-03-11T07:22:44;95433.97;;;4.51;100.00
57644;BME280;43474;46.510;6.686;2023-03-11T07:25:10;95450.84;;;4.43;100.00
57644;BME280;43474;46.510;6.686;2023-03-11T07:27:36;95470.19;;;4.60;100.00
57644;BME280;43474;46.510;6.686;2023-03-11T07:30:02;95474.06;;;4.58;100.00
57644;BME280;43474;46.510;6.686;2023-03-11T07:32:27;95470.41;;;4.59;100.00
57644;BME280;43474;46.510;6.686;2023-03-11T07:34:53;95469.16;;;4.61;100.00
57644;BME280;43474;46.510;6.686;2023-03-11T07:37:19;95473.41;;;4.62;100.00
57644;BME280;43474;46.510;6.686;2023-03-11T07:39:44;95470.22;;;4.72;100.00
57644;BME280;43474;46.510;6.686;2023-03-11T07:42:10;95476.59;;;4.64;100.00
57644;BME280;43474;46.510;6.686;2023-03-11T07:44:36;95478.41;;;4.64;100.00
57644;BME280;43474;46.510;6.686;2023-03-11T07:47:03;95472.72;;;4.67;100.00
57644;BME280;43474;46.510;6.686;2023-03-11T07:49:29;95478.84;;;4.61;100.00
57644;BME280;43474;46.510;6.686;2023-03-11T07:51:54;95470.72;;;4.51;100.00
57644;BME280;43474;46.510;6.686;2023-03-11T07:54:20;95487.97;;;4.58;100.00
57644;BME280;43474;46.510;6.686;2023-03-11T07:56:46;95492.63;;;4.56;100.00
57644;BME280;43474;46.510;6.686;2023-03-11T07:59:11;95488.41;;;4.55;100.00
57644;BME280;43474;46.510;6.686;2023-03-11T08:01:37;95485.81;;;4.67;100.00
57644;BME280;43474;46.510;6.686;2023-03-11T08:04:07;95489.19;;;4.74;100.00
57644;BME280;43474;46.510;6.686;2023-03-11T08:06:34;95496.38;;;4.79;100.00
57644;BME280;43474;46.510;6.686;2023-03-11T08:09:03;95504.25;;;4.79;100.00
57644;BME280;43474;46.510;6.686;2023-03-11T08:11:29;95506.09;;;4.78;100.00
57644;BME280;43474;46.510;6.686;2023-03-11T08:13:55;95512.00;;;4.74;100.00
57644;BME280;43474;46.510;6.686;2023-03-11T08:16:23;95531.44;;;4.84;100.00
57644;BME280;43474;46.510;6.686;2023-03-11T08:18:50;95537.72;;;4.83;100.00
57644;BME280;43474;46.510;6.686;2023-03-11T08:21:18;95541.03;;;4.90;100.00
57644;BME280;43474;46.510;6.686;2023-03-11T08:23:44;95564.09;;;4.88;100.00
57644;BME280;43474;46.510;6.686;2023-03-11T08:26:16;95562.16;;;4.84;100.00
57644;BME280;43474;46.510;6.686;2023-03-11T08:28:42;95583.19;;;4.96;100.00
57644;BME280;43474;46.510;6.686;2023-03-11T08:31:13;95595.75;;;4.93;100.00
57644;BME280;43474;46.510;6.686;2023-03-11T08:33:39;95606.53;;;4.85;100.00
57644;BME280;43474;46.510;6.686;2023-03-11T08:36:05;95591.16;;;4.71;100.00
57644;BME280;43474;46.510;6.686;2023-03-11T08:38:33;95601.81;;;4.76;100.00
57644;BME280;43474;46.510;6.686;2023-03-11T08:40:58;95607.47;;;4.91;100.00
57644;BME280;43474;46.510;6.686;2023-03-11T08:43:25;95618.44;;;4.88;100.00
57644;BME280;43474;46.510;6.686;2023-03-11T08:45:51;95622.88;;;4.87;100.00
57644;BME280;43474;46.510;6.686;2023-03-11T08:48:16;95612.38;;;4.87;100.00
57644;BME280;43474;46.510;6.686;2023-03-11T08:50:42;95623.75;;;5.00;100.00
57644;BME280;43474;46.510;6.686;2023-03-11T08:53:08;95628.31;;;5.04;100.00
57644;BME280;43474;46.510;6.686;2023-03-11T08:55:34;95627.97;;;5.01;100.00
57644;BME280;43474;46.510;6.686;2023-03-11T08:57:59;95625.94;;;5.03;100.00
57644;BME280;43474;46.510;6.686;2023-03-11T09:00:25;95619.66;;;5.04;100.00
57644;BME280;43474;46.510;6.686;2023-03-11T09:02:50;95616.69;;;5.12;100.00
57644;BME280;43474;46.510;6.686;2023-03-11T09:05:16;95613.66;;;4.97;100.00
57644;BME280;43474;46.510;6.686;2023-03-11T09:07:42;95624.81;;;4.92;100.00
57644;BME280;43474;46.510;6.686;2023-03-11T09:10:11;95634.47;;;4.98;100.00
57644;BME280;43474;46.510;6.686;2023-03-11T09:12:37;95621.34;;;4.98;100.00
57644;BME280;43474;46.510;6.686;2023-03-11T09:15:03;95650.41;;;5.15;100.00
57644;BME280;43474;46.510;6.686;2023-03-11T09:17:28;95639.41;;;5.06;100.00
57644;BME280;43474;46.510;6.686;2023-03-11T09:19:54;95634.66;;;4.97;100.00
57644;BME280;43474;46.510;6.686;2023-03-11T09:22:19;95630.69;;;4.94;100.00
57644;BME280;43474;46.510;6.686;2023-03-11T09:24:45;95632.03;;;4.97;100.00
57644;BME280;43474;46.510;6.686;2023-03-11T09:27:11;95637.75;;;4.93;100.00
57644;BME280;43474;46.510;6.686;2023-03-11T09:29:37;95635.66;;;4.84;100.00
57644;BME280;43474;46.510;6.686;2023-03-11T09:32:03;95617.84;;;4.86;100.00
57644;BME280;43474;46.510;6.686;2023-03-11T09:34:28;95641.41;;;4.92;100.00
57644;BME280;43474;46.510;6.686;2023-03-11T09:36:54;95645.78;;;4.99;100.00
57644;BME280;43474;46.510;6.686;2023-03-11T09:39:20;95639.91;;;4.97;100.00
57644;BME280;43474;46.510;6.686;2023-03-11T09:44:24;95655.75;;;5.08;100.00
57644;BME280;43474;46.510;6.686;2023-03-11T09:49:49;95661.81;;;5.09;100.00
57644;BME280;43474;46.510;6.686;2023-03-11T09:52:55;95661.56;;;5.10;100.00
57644;BME280;43474;46.510;6.686;2023-03-11T09:55:33;95664.13;;;5.17;100.00
57644;BME280;43474;46.510;6.686;2023-03-11T09:58:08;95652.66;;;5.11;100.00
57644;BME280;43474;46.510;6.686;2023-03-11T10:00:35;95669.31;;;5.24;100.00
57644;BME280;43474;46.510;6.686;2023-03-11T10:03:01;95662.31;;;5.17;100.00
57644;BME280;43474;46.510;6.686;2023-03-11T10:05:28;95656.59;;;5.21;100.00
57644;BME280;43474;46.510;6.686;2023-03-11T10:08:02;95655.38;;;5.23;100.00
57644;BME280;43474;46.510;6.686;2023-03-11T10:10:43;95668.84;;;5.27;100.00
57644;BME280;43474;46.510;6.686;2023-03-11T10:13:34;95659.72;;;5.29;100.00
57644;BME280;43474;46.510;6.686;2023-03-11T10:16:06;95656.47;;;5.45;100.00
57644;BME280;43474;46.510;6.686;2023-03-11T10:21:39;95670.34;;;5.53;100.00
57644;BME280;43474;46.510;6.686;2023-03-11T10:24:22;95651.09;;;5.40;100.00
57644;BME280;43474;46.510;6.686;2023-03-11T10:27:02;95663.72;;;5.62;100.00
57644;BME280;43474;46.510;6.686;2023-03-11T10:29:33;95655.03;;;5.61;100.00
57644;BME280;43474;46.510;6.686;2023-03-11T10:32:31;95669.28;;;5.72;100.00
57644;BME280;43474;46.510;6.686;2023-03-11T10:35:06;95673.75;;;5.83;100.00
57644;BME280;43474;46.510;6.686;2023-03-11T10:37:42;95671.03;;;5.90;100.00
57644;BME280;43474;46.510;6.686;2023-03-11T10:40:31;95681.19;;;5.86;100.00
57644;BME280;43474;46.510;6.686;2023-03-11T10:43:00;95669.47;;;6.01;100.00
57644;BME280;43474;46.510;6.686;2023-03-11T10:45:34;95683.78;;;6.05;100.00
57644;BME280;43474;46.510;6.686;2023-03-11T10:48:00;95680.78;;;6.01;100.00
57644;BME280;43474;46.510;6.686;2023-03-11T10:50:26;95685.97;;;6.08;100.00
57644;BME280;43474;46.510;6.686;2023-03-11T10:53:09;95682.19;;;6.04;100.00
57644;BME280;43474;46.510;6.686;2023-03-11T10:55:44;95683.47;;;6.13;100.00
57644;BME280;43474;46.510;6.686;2023-03-11T10:58:13;95686.78;;;6.20;100.00
57644;BME280;43474;46.510;6.686;2023-03-11T11:00:38;95676.84;;;6.22;100.00
57644;BME280;43474;46.510;6.686;2023-03-11T11:03:13;95667.78;;;6.30;100.00
57644;BME280;43474;46.510;6.686;2023-03-11T11:05:41;95672.50;;;6.51;100.00
57644;BME280;43474;46.510;6.686;2023-03-11T11:08:13;95672.63;;;6.68;100.00
57644;BME280;43474;46.510;6.686;2023-03-11T11:11:18;95666.19;;;6.76;100.00
57644;BME280;43474;46.510;6.686;2023-03-11T11:13:58;95678.44;;;6.82;100.00
57644;BME280;43474;46.510;6.686;2023-03-11T11:16:24;95677.88;;;6.80;100.00
57644;BME280;43474;46.510;6.686;2023-03-11T11:21:32;95687.34;;;6.81;100.00
57644;BME280;43474;46.510;6.686;2023-03-11T11:24:09;95686.34;;;6.58;100.00
57644;BME280;43474;46.510;6.686;2023-03-11T11:26:37;95664.16;;;6.54;100.00
57644;BME280;43474;46.510;6.686;2023-03-11T11:31:45;95673.75;;;6.25;100.00
57644;BME280;43474;46.510;6.686;2023-03-11T11:34:27;95695.59;;;6.26;100.00
57644;BME280;43474;46.510;6.686;2023-03-11T11:36:55;95691.44;;;6.06;100.00
57644;BME280;43474;46.510;6.686;2023-03-11T11:39:25;95692.03;;;6.08;100.00
57644;BME280;43474;46.510;6.686;2023-03-11T11:41:51;95695.16;;;6.29;100.00
57644;BME280;43474;46.510;6.686;2023-03-11T11:44:20;95690.91;;;6.28;100.00
57644;BME280;43474;46.510;6.686;2023-03-11T11:46:53;95679.78;;;6.26;100.00
57644;BME280;43474;46.510;6.686;2023-03-11T11:49:23;95684.63;;;6.40;100.00
57644;BME280;43474;46.510;6.686;2023-03-11T11:54:36;95691.75;;;6.52;100.00
57644;BME280;43474;46.510;6.686;2023-03-11T11:57:17;95689.56;;;6.48;100.00
57644;BME280;43474;46.510;6.686;2023-03-11T11:59:44;95687.16;;;6.47;100.00
57644;BME280;43474;46.510;6.686;2023-03-11T12:10:22;95667.91;;;6.35;100.00
57644;BME280;43474;46.510;6.686;2023-03-11T12:13:00;95698.25;;;6.49;100.00
57644;BME280;43474;46.510;6.686;2023-03-11T12:15:38;95688.06;;;6.53;100.00
57644;BME280;43474;46.510;6.686;2023-03-11T12:18:11;95691.38;;;6.60;100.00
57644;BME280;43474;46.510;6.686;2023-03-11T12:20:44;95679.59;;;6.74;100.00
57644;BME280;43474;46.510;6.686;2023-03-11T12:29:02;95654.72;;;6.93;100.00
57644;BME280;43474;46.510;6.686;2023-03-11T12:31:28;95661.78;;;7.05;100.00
57644;BME280;43474;46.510;6.686;2023-03-11T12:33:59;95658.22;;;7.11;100.00
57644;BME280;43474;46.510;6.686;2023-03-11T12:36:32;95657.50;;;7.27;100.00
57644;BME280;43474;46.510;6.686;2023-03-11T12:39:04;95659.91;;;7.29;100.00
57644;BME280;43474;46.510;6.686;2023-03-11T12:44:03;95661.50;;;7.30;100.00
57644;BME280;43474;46.510;6.686;2023-03-11T12:49:27;95666.03;;;7.06;100.00
57644;BME280;43474;46.510;6.686;2023-03-11T12:52:00;95673.28;;;6.87;100.00
57644;BME280;43474;46.510;6.686;2023-03-11T12:54:30;95672.13;;;6.94;100.00
57644;BME280;43474;46.510;6.686;2023-03-11T12:57:00;95653.44;;;6.96;100.00
57644;BME280;43474;46.510;6.686;2023-03-11T13:02:22;95656.31;;;7.06;100.00
57644;BME280;43474;46.510;6.686;2023-03-11T13:07:54;95645.78;;;7.06;100.00
57644;BME280;43474;46.510;6.686;2023-03-11T13:10:41;95652.06;;;7.05;100.00
57644;BME280;43474;46.510;6.686;2023-03-11T13:18:47;95647.97;;;6.97;100.00
57644;BME280;43474;46.510;6.686;2023-03-11T13:23:52;95646.84;;;6.82;100.00
57644;BME280;43474;46.510;6.686;2023-03-11T13:26:30;95664.22;;;6.94;100.00
57644;BME280;43474;46.510;6.686;2023-03-11T13:34:45;95674.44;;;6.67;100.00
57644;BME280;43474;46.510;6.686;2023-03-11T13:37:28;95686.91;;;6.60;100.00
57644;BME280;43474;46.510;6.686;2023-03-11T13:42:49;95693.44;;;6.46;100.00
57644;BME280;43474;46.510;6.686;2023-03-11T13:45:29;95690.56;;;6.24;100.00
57644;BME280;43474;46.510;6.686;2023-03-11T13:47:58;95676.38;;;6.25;100.00
57644;BME280;43474;46.510;6.686;2023-03-11T13:50:30;95689.88;;;6.29;100.00
57644;BME280;43474;46.510;6.686;2023-03-11T13:52:57;95695.13;;;6.17;100.00
57644;BME280;43474;46.510;6.686;2023-03-11T13:55:33;95703.72;;;6.24;100.00
57644;BME280;43474;46.510;6.686;2023-03-11T13:58:00;95705.66;;;6.17;100.00
57644;BME280;43474;46.510;6.686;2023-03-11T14:00:46;95709.84;;;6.06;100.00
57644;BME280;43474;46.510;6.686;2023-03-11T14:03:12;95709.84;;;6.06;100.00
57644;BME280;43474;46.510;6.686;2023-03-11T14:05:44;95707.22;;;6.06;100.00
57644;BME280;43474;46.510;6.686;2023-03-11T14:08:24;95711.25;;;6.20;100.00
57644;BME280;43474;46.510;6.686;2023-03-11T14:13:24;95706.47;;;6.17;100.00
57644;BME280;43474;46.510;6.686;2023-03-11T14:16:05;95717.66;;;6.25;100.00